KGLW/GLW METAR and TAF weather

Enter ICAO airport designator
Station Type Date Time Source
KGLW METAR 2023/02/06 19:35 UTC NOAA

KGLW 061935Z AUTO 08003KT 10SM CLR 15/00 A3018 RMK AO2 T01471005


Station Type Date Time Source
KGLW Decoded METAR 2023/02/06 19:35 UTC NOAA

Glasgow, Glasgow Municipal Airport, KY, United States (KGLW) 37-01-54N 085-57-13W
Feb 06, 2023 - 02:35 PM EST / 2023.02.06 1935 UTC
Wind: from the E (080 degrees) at 3 MPH (3 KT):0
Visibility: 10 mile(s):0
Sky conditions: clear
Temperature: 58.5 F (14.7 C)
Dew Point: 31.1 F (-0.5 C)
Relative Humidity: 35%
Pressure (altimeter): 30.18 in. Hg (1022 hPa)
ob: KGLW 061935Z AUTO 08003KT 10SM CLR 15/00 A3018 RMK AO2 T01471005
cycle: 19

Station Type Date Time Source
KGLW TAF UTC NOAA

Error!

Example: see airport list